Kikinda, Serbia
Current Conditions -  °F | °C
As of 3:45 AM on Tuesday 23 Dec 2014 (Local Time) from LHUD Reporting Station
Broken Clouds Broken Clouds  
Wind Chill: 35°   Ceiling: 4000
Heat Index: 41°   Visibility: 6mi
Dew Point: 36°   Wind: 9mph
Humidity: 81%   Direction: 210°SSW
Pressure: 30.12"   Gusts: NA
Location:  45.84°N, 20.45°E
Report Text: LHUD 230145Z 21008KT 9999 BKN040 05/02 Q1020
Loading
Personal Weather Stations






























Interactive Weather Map New forecast layout! Learn more

10-Day Weather Forecast

Advertisements
Track Severe Weather on mobile